createdAt,value
2024-04-30T00:00:01.643Z,80.03
2024-04-30T00:01:14.324Z,83.93
2024-04-30T00:02:18.670Z,92.97
2024-04-30T00:04:27.986Z,94.30
2024-04-30T00:05:48.120Z,89.22
2024-04-30T00:06:56.940Z,92.38
2024-04-30T00:08:04.089Z,94.18
2024-04-30T00:09:07.108Z,88.50
2024-04-30T00:10:15.170Z,89.03
2024-04-30T00:11:20.562Z,92.30
2024-04-30T00:12:24.699Z,86.45
2024-04-30T00:13:29.106Z,98.55
2024-04-30T00:14:42.229Z,86.60
2024-04-30T00:15:45.313Z,89.95
2024-04-30T00:16:47.625Z,89.97
2024-04-30T00:17:51.656Z,88.35
2024-04-30T00:18:59.391Z,85.82
2024-04-30T00:20:05.130Z,90.25
2024-04-30T00:21:12.422Z,92.95
2024-04-30T00:22:16.995Z,97.07
2024-04-30T00:23:21.080Z,89.85
2024-04-30T00:24:25.981Z,96.72
2024-04-30T00:25:31.282Z,89.50
2024-04-30T00:26:37.834Z,85.80
2024-04-30T00:27:42.684Z,81.28
2024-04-30T00:28:50.949Z,84.80
2024-04-30T00:29:53.740Z,90.63
2024-04-30T00:30:57.637Z,82.43
2024-04-30T00:32:00.750Z,88.50
2024-04-30T00:33:04.458Z,86.38
2024-04-30T00:34:11.144Z,84.65
2024-04-30T00:35:13.922Z,94.95
2024-04-30T00:36:16.834Z,89.07
2024-04-30T00:37:19.924Z,89.55
2024-04-30T00:38:24.770Z,92.90
2024-04-30T00:39:28.112Z,96.90
2024-04-30T00:40:31.704Z,79.78
2024-04-30T00:43:04.317Z,96.45
2024-04-30T00:44:16.259Z,79.45
2024-04-30T00:45:22.489Z,88.38
2024-04-30T00:46:29.484Z,83.05
2024-04-30T00:48:09.518Z,85.97
2024-04-30T00:49:17.332Z,92.95
2024-04-30T00:50:20.662Z,86.45
2024-04-30T00:51:24.619Z,91.93
2024-04-30T00:52:28.461Z,93.47
2024-04-30T00:53:36.745Z,88.30
2024-04-30T00:54:40.490Z,88.60
2024-04-30T00:55:44.313Z,87.80
2024-04-30T00:56:47.208Z,90.15
2024-04-30T00:57:52.029Z,93.47
2024-04-30T00:58:57.540Z,92.90
2024-04-30T01:00:01.402Z,96.47
2024-04-30T01:01:05.336Z,93.25
2024-04-30T01:02:09.223Z,86.80
2024-04-30T01:03:11.717Z,83.78
2024-04-30T01:04:14.715Z,82.60
2024-04-30T01:05:20.255Z,83.18
2024-04-30T01:06:22.550Z,83.38
2024-04-30T01:07:26.669Z,87.30
2024-04-30T01:08:33.993Z,86.97
2024-04-30T01:09:37.512Z,91.68
2024-04-30T01:10:44.490Z,88.32
2024-04-30T01:11:48.961Z,83.95
2024-04-30T01:12:53.698Z,92.88
2024-04-30T01:13:57.110Z,85.68
2024-04-30T01:15:02.244Z,78.95
2024-04-30T01:16:06.838Z,93.35
2024-04-30T01:17:10.434Z,85.88
2024-04-30T01:18:15.087Z,89.22
2024-04-30T01:19:18.525Z,87.13
2024-04-30T01:20:23.895Z,87.65
2024-04-30T01:21:28.139Z,88.35
2024-04-30T01:22:51.373Z,84.03
2024-04-30T01:23:55.811Z,87.70
2024-04-30T01:24:59.114Z,96.85
2024-04-30T01:26:01.732Z,106.15
2024-04-30T01:27:16.188Z,89.70
2024-04-30T01:28:20.457Z,92.28
2024-04-30T01:29:24.299Z,84.78
2024-04-30T01:30:32.756Z,93.90
2024-04-30T01:31:36.415Z,91.05
2024-04-30T01:32:39.557Z,81.88
2024-04-30T01:33:45.146Z,93.60
2024-04-30T01:35:00.682Z,85.32
2024-04-30T01:36:06.428Z,89.07
2024-04-30T01:37:17.241Z,86.93
2024-04-30T01:38:22.893Z,81.60
2024-04-30T01:39:26.561Z,82.55
2024-04-30T01:40:30.362Z,79.50
2024-04-30T01:41:34.364Z,76.13
2024-04-30T01:42:39.278Z,79.75
2024-04-30T01:43:43.932Z,97.32
2024-04-30T01:44:51.950Z,84.78
2024-04-30T01:46:00.305Z,82.63
2024-04-30T01:47:07.547Z,85.22
2024-04-30T01:48:11.031Z,84.63
2024-04-30T01:49:22.321Z,79.30
2024-04-30T01:50:27.005Z,89.60
2024-04-30T01:51:32.756Z,91.40
2024-04-30T01:52:40.668Z,91.70
2024-04-30T01:55:21.533Z,84.85
2024-04-30T01:57:48.714Z,81.15
2024-04-30T01:58:54.954Z,85.15
2024-04-30T02:00:01.058Z,91.63
2024-04-30T02:01:20.600Z,90.35
2024-04-30T02:02:26.948Z,89.60
2024-04-30T02:03:34.644Z,96.30
2024-04-30T02:04:46.423Z,82.13
2024-04-30T02:05:52.629Z,74.95
2024-04-30T02:06:58.998Z,82.03
2024-04-30T02:08:05.092Z,90.72
2024-04-30T02:09:11.201Z,86.70
2024-04-30T02:10:18.062Z,82.88
2024-04-30T02:11:46.716Z,79.72
2024-04-30T02:12:51.179Z,89.72
2024-04-30T02:13:57.641Z,80.63
2024-04-30T02:15:05.589Z,91.53
2024-04-30T02:16:11.569Z,85.47
2024-04-30T02:17:14.023Z,75.05
2024-04-30T02:18:17.169Z,81.07
2024-04-30T02:19:40.149Z,78.35
2024-04-30T02:20:45.257Z,85.85
2024-04-30T02:21:47.723Z,92.57
2024-04-30T02:22:50.239Z,81.10
2024-04-30T02:23:52.617Z,100.93
2024-04-30T02:24:54.982Z,85.70
2024-04-30T02:26:02.730Z,87.75
2024-04-30T02:27:07.124Z,90.10
2024-04-30T02:28:09.981Z,95.65
2024-04-30T02:29:13.097Z,88.57
2024-04-30T02:30:36.121Z,79.97
2024-04-30T02:32:00.114Z,86.25
2024-04-30T02:33:21.348Z,87.65
2024-04-30T02:34:30.246Z,86.30
2024-04-30T02:36:37.372Z,83.50
2024-04-30T02:37:40.439Z,74.10
2024-04-30T02:38:46.551Z,77.88
2024-04-30T02:39:51.323Z,87.90
2024-04-30T02:40:54.861Z,84.43
2024-04-30T02:42:06.461Z,87.03
2024-04-30T02:43:10.081Z,94.00
2024-04-30T02:44:29.776Z,79.43
2024-04-30T02:45:33.169Z,70.20
2024-04-30T02:46:43.781Z,76.95
2024-04-30T02:47:55.332Z,77.55
2024-04-30T02:49:03.743Z,65.75
2024-04-30T02:50:09.892Z,77.20
2024-04-30T02:51:12.698Z,81.57
2024-04-30T02:52:15.847Z,72.20
2024-04-30T02:53:43.684Z,71.55
2024-04-30T02:54:48.072Z,74.85
2024-04-30T02:55:51.480Z,65.78
2024-04-30T02:56:54.095Z,74.78
2024-04-30T02:58:03.408Z,47.80
2024-04-30T02:59:09.178Z,62.47
2024-04-30T03:00:12.163Z,73.38
2024-04-30T03:01:15.286Z,64.78
2024-04-30T03:02:21.046Z,66.15
2024-04-30T03:03:24.624Z,68.22
2024-04-30T03:04:27.952Z,71.50
2024-04-30T03:05:31.202Z,68.30
2024-04-30T03:06:39.052Z,73.65
2024-04-30T03:07:42.685Z,78.80
2024-04-30T03:08:46.141Z,50.88
2024-04-30T03:09:49.084Z,77.85
2024-04-30T03:11:02.001Z,74.03
2024-04-30T03:12:10.046Z,85.55
2024-04-30T03:13:17.126Z,62.67
2024-04-30T03:14:25.968Z,78.00
2024-04-30T03:15:35.011Z,66.50
2024-04-30T03:18:15.483Z,73.45
2024-04-30T03:19:22.283Z,72.57
2024-04-30T03:20:27.727Z,66.90
2024-04-30T03:21:37.211Z,60.17
2024-04-30T03:22:43.980Z,57.10
2024-04-30T03:23:48.269Z,73.03
2024-04-30T03:24:52.307Z,78.07
2024-04-30T03:25:56.381Z,45.20
2024-04-30T03:27:04.433Z,66.53
2024-04-30T03:28:14.203Z,32.63
2024-04-30T03:29:17.271Z,68.15
2024-04-30T03:30:31.678Z,34.63
2024-04-30T03:31:44.760Z,38.35
2024-04-30T03:32:53.512Z,31.35
2024-04-30T03:33:59.600Z,38.08
2024-04-30T03:35:03.231Z,39.53
2024-04-30T03:36:06.977Z,28.88
2024-04-30T03:37:12.015Z,33.38
2024-04-30T03:38:16.002Z,39.13
2024-04-30T03:39:18.875Z,32.03
2024-04-30T03:40:24.333Z,36.35
2024-04-30T03:41:30.939Z,37.65
2024-04-30T03:42:33.218Z,41.80
2024-04-30T03:43:39.511Z,31.58
2024-04-30T03:44:45.826Z,33.28
2024-04-30T03:45:50.834Z,23.67
2024-04-30T03:46:55.202Z,26.15
2024-04-30T03:48:11.414Z,20.65
2024-04-30T03:49:15.147Z,19.23
2024-04-30T03:50:18.914Z,26.08
2024-04-30T03:51:21.954Z,29.02
2024-04-30T03:52:24.855Z,28.45
2024-04-30T03:53:29.182Z,27.65
2024-04-30T03:54:35.335Z,27.63
2024-04-30T03:55:38.064Z,32.00
2024-04-30T03:56:43.399Z,23.20
2024-04-30T03:57:50.361Z,22.30
2024-04-30T03:58:52.666Z,17.95
2024-04-30T03:59:56.282Z,26.92
2024-04-30T04:01:00.611Z,10.23
2024-04-30T04:02:03.323Z,13.32
2024-04-30T04:03:07.392Z,12.75
2024-04-30T04:04:10.139Z,10.90
2024-04-30T04:05:12.556Z,9.52
2024-04-30T04:06:17.614Z,10.20
2024-04-30T04:07:20.425Z,9.57
2024-04-30T04:08:22.713Z,10.50
2024-04-30T04:09:25.309Z,11.43
2024-04-30T04:10:27.582Z,14.20
2024-04-30T04:11:48.665Z,8.82
2024-04-30T04:13:09.589Z,11.13
2024-04-30T04:14:30.720Z,14.93
2024-04-30T04:15:34.026Z,11.50
2024-04-30T04:16:36.188Z,10.65
2024-04-30T04:17:38.660Z,10.50
2024-04-30T04:18:40.905Z,12.68
2024-04-30T04:19:43.841Z,7.38
2024-04-30T04:20:46.036Z,8.50
2024-04-30T04:21:48.215Z,9.75
2024-04-30T04:22:50.464Z,12.90
2024-04-30T04:23:52.649Z,8.98
2024-04-30T04:24:54.835Z,9.55
2024-04-30T04:25:57.126Z,10.50
2024-04-30T04:26:59.559Z,9.20
2024-04-30T04:28:02.726Z,8.20
2024-04-30T04:29:04.890Z,13.00
2024-04-30T04:30:07.702Z,9.73
2024-04-30T04:31:09.898Z,10.82
2024-04-30T04:32:12.371Z,11.85
2024-04-30T04:33:14.620Z,9.68
2024-04-30T04:34:16.936Z,9.38
2024-04-30T04:35:19.138Z,11.05
2024-04-30T04:36:21.335Z,8.07
2024-04-30T04:37:25.756Z,8.48
2024-04-30T04:38:29.370Z,7.70
2024-04-30T04:39:31.525Z,10.85
2024-04-30T04:40:33.742Z,9.90
2024-04-30T04:41:35.965Z,10.40
2024-04-30T04:42:38.280Z,10.65
2024-04-30T04:43:40.933Z,6.90
2024-04-30T04:44:43.214Z,10.57
2024-04-30T04:45:45.401Z,7.65
2024-04-30T04:46:47.612Z,8.60
2024-04-30T04:47:49.914Z,8.07
2024-04-30T04:48:54.152Z,11.05
2024-04-30T04:49:57.197Z,9.85
2024-04-30T04:50:59.480Z,21.83
2024-04-30T04:52:01.869Z,8.60
2024-04-30T04:53:04.508Z,8.25
2024-04-30T04:54:06.702Z,9.02
2024-04-30T04:55:09.044Z,14.32
2024-04-30T04:56:11.337Z,9.75
2024-04-30T04:57:13.551Z,5.80
2024-04-30T04:58:15.763Z,7.47
2024-04-30T04:59:18.179Z,8.40
2024-04-30T05:00:23.953Z,8.20
2024-04-30T05:01:27.882Z,10.38
2024-04-30T05:02:30.319Z,10.32
2024-04-30T05:03:32.729Z,10.15
2024-04-30T05:04:34.968Z,14.27
2024-04-30T05:05:37.270Z,7.97
2024-04-30T05:06:42.455Z,8.50
2024-04-30T05:07:45.120Z,9.00
2024-04-30T05:08:47.401Z,8.55
2024-04-30T05:09:49.735Z,5.75
2024-04-30T05:10:52.136Z,7.80
2024-04-30T05:11:55.820Z,6.70
2024-04-30T05:12:58.128Z,7.55
2024-04-30T05:14:00.432Z,9.38
2024-04-30T05:15:02.645Z,7.78
2024-04-30T05:16:06.069Z,6.82
2024-04-30T05:17:08.506Z,16.00
2024-04-30T05:18:10.778Z,12.32
2024-04-30T05:19:13.124Z,7.75
2024-04-30T05:20:15.488Z,10.70
2024-04-30T05:21:17.667Z,9.68
2024-04-30T05:22:19.891Z,8.10
2024-04-30T05:23:22.134Z,9.00
2024-04-30T05:24:24.575Z,10.60
2024-04-30T05:25:28.037Z,7.28
2024-04-30T05:26:30.619Z,7.22
2024-04-30T05:27:32.813Z,11.32
2024-04-30T05:28:35.140Z,10.63
2024-04-30T05:29:37.851Z,6.50
2024-04-30T05:30:40.159Z,12.27
2024-04-30T05:31:42.331Z,8.80
2024-04-30T05:32:45.779Z,6.50
2024-04-30T05:33:48.353Z,9.35
2024-04-30T05:34:50.695Z,9.50
2024-04-30T05:35:53.038Z,8.18
2024-04-30T05:36:55.407Z,8.15
2024-04-30T05:37:57.588Z,9.25
2024-04-30T05:39:02.823Z,9.48
2024-04-30T05:40:06.313Z,8.07
2024-04-30T05:41:08.706Z,12.02
2024-04-30T05:42:11.009Z,9.63
2024-04-30T05:43:15.907Z,6.75
2024-04-30T05:44:18.546Z,12.55
2024-04-30T05:45:20.893Z,9.50
2024-04-30T05:46:23.073Z,10.05
2024-04-30T05:47:25.432Z,9.90
2024-04-30T05:48:27.748Z,9.57
2024-04-30T05:49:29.996Z,9.23
2024-04-30T05:50:32.183Z,10.75
2024-04-30T05:51:34.610Z,10.85
2024-04-30T05:52:37.014Z,8.30
2024-04-30T05:53:39.395Z,10.55
2024-04-30T05:54:41.654Z,13.60
2024-04-30T05:55:44.063Z,11.70
2024-04-30T05:56:46.453Z,11.10
2024-04-30T05:57:48.745Z,13.23
2024-04-30T05:58:50.878Z,8.95
2024-04-30T05:59:53.145Z,11.32
2024-04-30T06:00:55.450Z,8.25
2024-04-30T06:02:01.492Z,8.07
2024-04-30T06:03:04.387Z,8.38
2024-04-30T06:04:06.781Z,11.60
2024-04-30T06:05:09.206Z,7.78
2024-04-30T06:06:12.170Z,9.13
2024-04-30T06:07:14.423Z,8.55
2024-04-30T06:08:16.755Z,12.90
2024-04-30T06:09:19.183Z,11.65
2024-04-30T06:10:21.339Z,9.63
2024-04-30T06:11:23.604Z,9.40
2024-04-30T06:12:26.135Z,10.07
2024-04-30T06:13:28.524Z,9.18
2024-04-30T06:14:31.035Z,11.85
2024-04-30T06:15:34.745Z,10.80
2024-04-30T06:16:38.281Z,8.35
2024-04-30T06:17:40.642Z,8.93
2024-04-30T06:18:43.112Z,12.25
2024-04-30T06:19:45.376Z,12.75
2024-04-30T06:20:47.567Z,13.32
2024-04-30T06:21:49.987Z,10.73
2024-04-30T06:22:52.586Z,9.27
2024-04-30T06:23:56.058Z,9.23
2024-04-30T06:24:59.511Z,10.15
2024-04-30T06:26:01.858Z,13.35
2024-04-30T06:27:04.366Z,10.35
2024-04-30T06:28:07.214Z,11.52
2024-04-30T06:29:09.510Z,6.47
2024-04-30T06:30:11.892Z,13.25
2024-04-30T06:31:14.302Z,7.20
2024-04-30T06:32:16.541Z,13.10
2024-04-30T06:33:18.889Z,10.27
2024-04-30T06:34:24.016Z,11.13
2024-04-30T06:35:27.295Z,11.50
2024-04-30T06:36:30.076Z,8.38
2024-04-30T06:37:32.267Z,6.72
2024-04-30T06:38:35.693Z,9.18
2024-04-30T06:39:38.605Z,9.57
2024-04-30T06:40:42.498Z,9.13
2024-04-30T06:41:44.702Z,8.50
2024-04-30T06:42:46.926Z,12.35
2024-04-30T06:43:49.887Z,11.82
2024-04-30T06:44:52.178Z,5.60
2024-04-30T06:45:55.471Z,7.60
2024-04-30T06:46:57.675Z,11.73
2024-04-30T06:47:59.934Z,6.63
2024-04-30T06:49:03.807Z,12.45
2024-04-30T06:50:06.721Z,12.52
2024-04-30T06:51:09.107Z,6.68
2024-04-30T06:52:12.086Z,10.85
2024-04-30T06:53:14.355Z,8.32
2024-04-30T06:54:16.740Z,11.18
2024-04-30T06:55:19.416Z,9.57
2024-04-30T06:56:21.669Z,7.28
2024-04-30T06:57:24.069Z,7.25
2024-04-30T06:58:26.537Z,9.52
2024-04-30T06:59:29.021Z,7.25
2024-04-30T07:00:31.224Z,14.88
2024-04-30T07:01:34.256Z,8.30
2024-04-30T07:02:36.502Z,12.02
2024-04-30T07:03:38.707Z,8.07
2024-04-30T07:04:41.816Z,7.65
2024-04-30T07:05:44.710Z,7.90
2024-04-30T07:06:47.051Z,7.43
2024-04-30T07:07:49.481Z,7.57
2024-04-30T07:08:52.817Z,12.30
2024-04-30T07:09:57.801Z,8.07
2024-04-30T07:11:02.346Z,8.88
2024-04-30T07:12:06.891Z,46.50
2024-04-30T07:13:09.710Z,10.10
2024-04-30T07:14:12.109Z,7.97
2024-04-30T07:15:14.611Z,8.75
2024-04-30T07:16:18.313Z,6.20
2024-04-30T07:17:20.951Z,8.77
2024-04-30T07:18:24.279Z,10.10
2024-04-30T07:19:26.760Z,6.50
2024-04-30T07:20:30.040Z,11.68
2024-04-30T07:21:32.270Z,7.95
2024-04-30T07:22:35.889Z,7.95
2024-04-30T07:23:40.582Z,7.05
2024-04-30T07:24:43.306Z,8.02
2024-04-30T07:25:47.676Z,8.95
2024-04-30T07:26:50.169Z,7.78
2024-04-30T07:27:53.804Z,8.40
2024-04-30T07:28:57.554Z,8.35
2024-04-30T07:30:01.344Z,8.80
2024-04-30T07:31:03.888Z,7.35
2024-04-30T07:32:06.485Z,6.80
2024-04-30T07:33:08.925Z,6.53
2024-04-30T07:34:11.436Z,16.48
2024-04-30T07:35:13.920Z,7.28
2024-04-30T07:36:17.855Z,8.05
2024-04-30T07:37:20.096Z,9.50
2024-04-30T07:38:22.464Z,6.43
2024-04-30T07:39:25.415Z,8.32
2024-04-30T07:40:29.313Z,4.97
2024-04-30T07:41:31.722Z,11.70
2024-04-30T07:42:35.940Z,6.78
2024-04-30T07:43:43.607Z,6.18
2024-04-30T07:44:47.052Z,8.07
2024-04-30T07:45:49.797Z,5.95
2024-04-30T07:46:53.445Z,6.30
2024-04-30T07:47:55.835Z,4.78
2024-04-30T07:48:58.112Z,8.13
2024-04-30T07:50:02.595Z,6.88
2024-04-30T07:51:08.623Z,7.03
2024-04-30T07:52:10.886Z,7.43
2024-04-30T07:53:13.414Z,10.32
2024-04-30T07:54:16.646Z,10.65
2024-04-30T07:55:21.362Z,8.95
2024-04-30T07:56:23.765Z,11.20
2024-04-30T07:57:27.364Z,7.30
2024-04-30T07:58:29.568Z,10.50
2024-04-30T07:59:33.366Z,7.68
2024-04-30T08:00:35.729Z,7.22
2024-04-30T08:01:37.980Z,10.55
2024-04-30T08:02:42.111Z,16.20
2024-04-30T08:03:44.356Z,16.95
2024-04-30T08:04:46.673Z,7.13
2024-04-30T08:05:50.571Z,8.02
2024-04-30T08:06:55.597Z,10.35
2024-04-30T08:07:59.830Z,12.15
2024-04-30T08:09:02.500Z,15.98
2024-04-30T08:10:05.140Z,15.02
2024-04-30T08:11:09.944Z,10.20
2024-04-30T08:12:12.222Z,10.00
2024-04-30T08:13:14.611Z,13.90
2024-04-30T08:14:16.852Z,9.55
2024-04-30T08:15:19.032Z,18.27
2024-04-30T08:16:22.543Z,10.57
2024-04-30T08:17:25.037Z,9.30
2024-04-30T08:18:27.503Z,6.78
2024-04-30T08:19:30.459Z,7.07
2024-04-30T08:20:35.520Z,7.18
2024-04-30T08:21:37.938Z,8.30
2024-04-30T08:22:40.346Z,12.07
2024-04-30T08:23:44.028Z,10.57
2024-04-30T08:24:46.244Z,20.17
2024-04-30T08:25:49.645Z,5.15
2024-04-30T08:26:51.891Z,10.25
2024-04-30T08:27:54.153Z,11.38
2024-04-30T08:28:56.383Z,7.82
2024-04-30T08:29:59.265Z,10.00
2024-04-30T08:31:02.033Z,8.18
2024-04-30T08:32:07.775Z,9.10
2024-04-30T08:33:10.086Z,8.80
2024-04-30T08:34:14.182Z,9.20
2024-04-30T08:35:17.330Z,17.30
2024-04-30T08:36:25.776Z,12.73
2024-04-30T08:37:36.892Z,10.10
2024-04-30T08:38:39.886Z,8.30
2024-04-30T08:39:43.615Z,8.80
2024-04-30T08:40:47.433Z,5.78
2024-04-30T08:41:51.717Z,9.23
2024-04-30T08:42:55.768Z,9.88
2024-04-30T08:44:02.290Z,8.18
2024-04-30T08:45:05.486Z,8.32
2024-04-30T08:46:08.263Z,16.88
2024-04-30T08:47:12.174Z,6.88
2024-04-30T08:48:16.102Z,14.95
2024-04-30T08:49:29.512Z,12.40
2024-04-30T08:50:42.785Z,6.55
2024-04-30T08:51:45.948Z,10.68
2024-04-30T08:52:49.121Z,11.25
2024-04-30T08:53:52.659Z,15.15
2024-04-30T08:54:59.659Z,10.98
2024-04-30T08:56:02.055Z,9.45
2024-04-30T08:57:06.010Z,5.38
2024-04-30T08:58:09.769Z,6.45
2024-04-30T08:59:12.103Z,8.68
2024-04-30T09:00:14.588Z,9.63
2024-04-30T09:01:18.167Z,9.20
2024-04-30T09:02:22.967Z,7.72
2024-04-30T09:03:26.826Z,7.40
2024-04-30T09:04:30.285Z,7.40
2024-04-30T09:05:36.039Z,8.05
2024-04-30T09:06:43.022Z,6.55
2024-04-30T09:07:48.399Z,7.22
2024-04-30T09:08:50.687Z,12.15
2024-04-30T09:09:59.990Z,6.28
2024-04-30T09:11:03.101Z,12.82
2024-04-30T09:12:07.642Z,9.10
2024-04-30T09:13:10.064Z,9.88
2024-04-30T09:14:12.616Z,8.68
2024-04-30T09:15:21.191Z,10.77
2024-04-30T09:16:25.134Z,57.05
2024-04-30T09:17:28.977Z,10.10
2024-04-30T09:18:33.711Z,10.95
2024-04-30T09:19:36.047Z,13.43
2024-04-30T09:20:47.669Z,7.68
2024-04-30T09:21:51.297Z,10.05
2024-04-30T09:22:54.792Z,9.27
2024-04-30T09:24:09.730Z,16.90
2024-04-30T09:25:13.975Z,10.05
2024-04-30T09:26:16.230Z,8.00
2024-04-30T09:27:18.548Z,10.25
2024-04-30T09:28:23.825Z,10.02
2024-04-30T09:29:38.234Z,13.50
2024-04-30T09:30:44.171Z,12.45
2024-04-30T09:31:48.088Z,10.95
2024-04-30T09:32:51.820Z,13.77
2024-04-30T09:33:56.094Z,16.63
2024-04-30T09:34:58.486Z,11.13
2024-04-30T09:36:10.372Z,11.52
2024-04-30T09:37:24.693Z,8.25
2024-04-30T09:38:28.870Z,6.65
2024-04-30T09:39:34.621Z,12.20
2024-04-30T09:40:37.428Z,13.27
2024-04-30T09:41:40.109Z,11.23
2024-04-30T09:42:42.910Z,8.15
2024-04-30T09:43:48.246Z,10.75
2024-04-30T09:44:55.169Z,11.35
2024-04-30T09:45:59.005Z,7.03
2024-04-30T09:47:03.314Z,7.53
2024-04-30T09:48:09.824Z,17.90
2024-04-30T09:49:15.315Z,12.43
2024-04-30T09:50:18.850Z,14.88
2024-04-30T09:51:26.522Z,10.80
2024-04-30T09:52:30.274Z,9.40
2024-04-30T09:53:33.762Z,11.43
2024-04-30T09:54:38.353Z,13.32
2024-04-30T09:55:44.017Z,6.25
2024-04-30T09:56:51.675Z,9.38
2024-04-30T09:57:57.379Z,7.65
2024-04-30T09:58:59.889Z,9.85
2024-04-30T10:00:03.040Z,12.00
2024-04-30T10:01:19.421Z,7.15
2024-04-30T10:02:23.289Z,8.70
2024-04-30T10:03:27.988Z,12.45
2024-04-30T10:04:31.314Z,9.50
2024-04-30T10:05:38.729Z,6.97
2024-04-30T10:06:45.048Z,8.68
2024-04-30T10:08:06.651Z,5.20
2024-04-30T10:09:08.995Z,6.22
2024-04-30T10:10:11.280Z,5.38
2024-04-30T10:11:14.315Z,7.70
2024-04-30T10:12:29.524Z,6.85
2024-04-30T10:13:56.656Z,11.15
2024-04-30T10:15:12.848Z,7.72
2024-04-30T10:16:18.687Z,8.73
2024-04-30T10:17:21.324Z,7.30
2024-04-30T10:18:26.032Z,18.10
2024-04-30T10:19:29.520Z,8.93
2024-04-30T10:20:32.802Z,9.18
2024-04-30T10:21:37.696Z,16.50
2024-04-30T10:22:44.244Z,15.07
2024-04-30T10:23:47.923Z,15.10
2024-04-30T10:24:50.178Z,7.43
2024-04-30T10:26:04.666Z,7.97
2024-04-30T10:27:25.491Z,5.55
2024-04-30T10:28:28.027Z,5.50
2024-04-30T10:29:31.255Z,7.22
2024-04-30T10:30:33.944Z,7.57
2024-04-30T10:31:37.953Z,8.18
2024-04-30T10:32:46.872Z,6.65
2024-04-30T10:33:51.567Z,9.45
2024-04-30T10:34:55.402Z,37.42
2024-04-30T10:36:00.220Z,14.95
2024-04-30T10:37:05.100Z,15.05
2024-04-30T10:38:08.032Z,21.25
2024-04-30T10:39:12.218Z,11.65
2024-04-30T10:40:17.525Z,11.13
2024-04-30T10:41:21.019Z,13.80
2024-04-30T10:42:35.363Z,15.55
2024-04-30T10:43:38.532Z,8.10
2024-04-30T10:44:42.648Z,10.50
2024-04-30T10:45:44.848Z,5.40
2024-04-30T10:46:47.236Z,14.63
2024-04-30T10:47:51.021Z,9.32
2024-04-30T10:48:55.113Z,5.82
2024-04-30T10:50:16.581Z,10.10
2024-04-30T10:51:24.417Z,7.88
2024-04-30T10:52:27.328Z,8.68
2024-04-30T10:53:33.694Z,10.25
2024-04-30T10:54:36.481Z,9.93
2024-04-30T10:55:43.196Z,8.98
2024-04-30T10:56:46.520Z,6.43
2024-04-30T10:57:49.945Z,6.10
2024-04-30T10:58:59.497Z,7.25
2024-04-30T11:00:02.925Z,9.63
2024-04-30T11:01:05.670Z,15.45
2024-04-30T11:02:09.284Z,5.53
2024-04-30T11:03:15.482Z,7.50
2024-04-30T11:04:17.980Z,8.70
2024-04-30T11:05:20.666Z,8.98
2024-04-30T11:06:23.189Z,15.98
2024-04-30T11:07:27.999Z,9.88
2024-04-30T11:08:30.229Z,9.82
2024-04-30T11:09:40.787Z,10.25
2024-04-30T11:10:47.033Z,7.68
2024-04-30T11:11:51.289Z,10.75
2024-04-30T11:13:04.601Z,13.13
2024-04-30T11:14:06.956Z,23.13
2024-04-30T11:15:11.259Z,8.38
2024-04-30T11:16:16.222Z,12.20
2024-04-30T11:17:27.640Z,9.70
2024-04-30T11:18:30.967Z,9.30
2024-04-30T11:19:33.204Z,11.32
2024-04-30T11:20:36.938Z,13.65
2024-04-30T11:21:40.351Z,8.63
2024-04-30T11:22:43.984Z,13.52
2024-04-30T11:23:46.329Z,17.35
2024-04-30T11:24:48.587Z,19.05
2024-04-30T11:25:50.860Z,12.98
2024-04-30T11:26:53.148Z,14.48
2024-04-30T11:27:55.583Z,15.07
2024-04-30T11:29:09.573Z,8.10
2024-04-30T11:30:22.606Z,11.20
2024-04-30T11:31:29.752Z,7.82
2024-04-30T11:32:33.676Z,11.00
2024-04-30T11:33:36.685Z,6.45
2024-04-30T11:34:40.392Z,13.25
2024-04-30T11:35:44.246Z,11.98
2024-04-30T11:36:49.730Z,14.93
2024-04-30T11:37:51.901Z,15.10
2024-04-30T11:38:58.326Z,12.60
2024-04-30T11:40:01.014Z,9.07
2024-04-30T11:41:08.537Z,9.95
2024-04-30T11:42:18.399Z,15.82
2024-04-30T11:43:26.935Z,16.42
2024-04-30T11:44:30.055Z,13.30
2024-04-30T11:45:36.878Z,16.58
2024-04-30T11:46:39.247Z,46.63
2024-04-30T11:47:41.580Z,10.88
2024-04-30T11:48:45.160Z,5.97
2024-04-30T11:49:48.006Z,10.88
2024-04-30T11:50:55.620Z,9.40
2024-04-30T11:52:02.681Z,9.07
2024-04-30T11:53:09.396Z,7.88
2024-04-30T11:54:14.612Z,5.63
2024-04-30T11:55:20.752Z,6.68
2024-04-30T11:56:27.309Z,9.90
2024-04-30T11:57:35.949Z,9.68
2024-04-30T11:58:39.182Z,12.05
2024-04-30T11:59:42.663Z,13.07
2024-04-30T12:00:46.718Z,10.75
2024-04-30T12:01:50.150Z,9.65
2024-04-30T12:02:54.004Z,11.48
2024-04-30T12:03:56.484Z,7.18
2024-04-30T12:05:00.581Z,10.95
2024-04-30T12:06:08.739Z,18.27
2024-04-30T12:07:11.376Z,19.42
2024-04-30T12:08:14.627Z,15.57
2024-04-30T12:09:22.446Z,15.00
2024-04-30T12:10:26.567Z,30.10
2024-04-30T12:11:28.964Z,24.70
2024-04-30T12:12:31.237Z,22.27
2024-04-30T12:13:36.180Z,19.27
2024-04-30T12:14:40.603Z,16.77
2024-04-30T12:15:43.156Z,14.45
2024-04-30T12:16:47.996Z,24.98
2024-04-30T12:17:54.350Z,11.85
2024-04-30T12:19:00.712Z,12.45
2024-04-30T12:20:07.807Z,14.60
2024-04-30T12:21:11.358Z,15.23
2024-04-30T12:22:17.781Z,17.35
2024-04-30T12:23:22.104Z,17.98
2024-04-30T12:24:26.447Z,15.20
2024-04-30T12:25:31.727Z,10.27
2024-04-30T12:26:37.714Z,15.77
2024-04-30T12:27:41.077Z,13.75
2024-04-30T12:28:43.930Z,10.23
2024-04-30T12:29:48.728Z,9.75
2024-04-30T12:30:52.506Z,10.38
2024-04-30T12:31:55.033Z,9.45
2024-04-30T12:32:58.921Z,7.90
2024-04-30T12:34:02.989Z,10.27
2024-04-30T12:35:07.660Z,11.45
2024-04-30T12:36:10.973Z,12.18
2024-04-30T12:37:15.268Z,13.60
2024-04-30T12:38:23.801Z,10.30
2024-04-30T12:39:26.098Z,16.92
2024-04-30T12:40:28.944Z,14.43
2024-04-30T12:41:39.272Z,9.02
2024-04-30T12:42:46.873Z,8.32
2024-04-30T12:43:50.375Z,14.25
2024-04-30T12:44:53.294Z,9.07
2024-04-30T12:45:55.728Z,15.85
2024-04-30T12:46:59.159Z,14.85
2024-04-30T12:48:02.110Z,14.05
2024-04-30T12:49:05.903Z,11.80
2024-04-30T12:50:08.914Z,17.48
2024-04-30T12:51:15.574Z,8.07
2024-04-30T12:52:19.156Z,11.20
2024-04-30T12:53:22.908Z,12.43
2024-04-30T12:54:45.626Z,10.35
2024-04-30T12:55:50.415Z,13.00
2024-04-30T12:56:55.503Z,7.07
2024-04-30T12:58:00.554Z,20.55
2024-04-30T12:59:06.496Z,14.77
2024-04-30T13:00:09.099Z,12.98
2024-04-30T13:01:16.956Z,11.57
2024-04-30T13:02:21.551Z,10.18
2024-04-30T13:03:24.894Z,8.63
2024-04-30T13:04:27.360Z,12.38
2024-04-30T13:05:31.097Z,8.63
2024-04-30T13:06:39.205Z,9.18
2024-04-30T13:07:41.575Z,9.87
2024-04-30T13:08:43.922Z,9.18
2024-04-30T13:09:47.257Z,13.23
2024-04-30T13:10:50.065Z,12.07
2024-04-30T13:11:55.154Z,11.13
2024-04-30T13:12:57.531Z,9.90
2024-04-30T13:13:59.865Z,9.88
2024-04-30T13:15:03.391Z,8.65
2024-04-30T13:16:08.025Z,9.75
2024-04-30T13:17:13.366Z,7.95
2024-04-30T13:18:15.656Z,13.57
2024-04-30T13:19:18.166Z,8.38
2024-04-30T13:20:20.685Z,8.20
2024-04-30T13:21:23.100Z,11.57
2024-04-30T13:22:26.329Z,8.73
2024-04-30T13:23:50.429Z,12.13
2024-04-30T13:24:52.864Z,9.13
2024-04-30T13:25:55.165Z,13.20
2024-04-30T13:26:57.331Z,12.32
2024-04-30T13:28:02.108Z,8.30
2024-04-30T13:29:06.038Z,11.68
2024-04-30T13:30:13.356Z,10.80
2024-04-30T13:31:17.411Z,16.65
2024-04-30T13:32:21.079Z,10.98
2024-04-30T13:33:24.530Z,10.30
2024-04-30T13:34:28.605Z,8.40
2024-04-30T13:35:32.049Z,12.80
2024-04-30T13:36:34.567Z,10.60
2024-04-30T13:37:39.753Z,12.80
2024-04-30T13:38:42.179Z,9.68
2024-04-30T13:39:45.854Z,11.48
2024-04-30T13:40:49.221Z,14.55
2024-04-30T13:41:53.112Z,9.75
2024-04-30T13:42:55.499Z,14.82
2024-04-30T13:44:00.640Z,11.50
2024-04-30T13:45:02.906Z,14.48
2024-04-30T13:46:05.894Z,5.93
2024-04-30T13:47:09.095Z,10.23
2024-04-30T13:48:11.625Z,11.13
2024-04-30T13:49:14.143Z,12.25
2024-04-30T13:50:18.192Z,8.73
2024-04-30T13:51:26.165Z,19.45
2024-04-30T13:52:28.535Z,8.57
2024-04-30T13:53:30.718Z,11.38
2024-04-30T13:54:34.533Z,9.45
2024-04-30T13:55:36.907Z,11.95
2024-04-30T13:56:40.115Z,13.98
2024-04-30T13:57:44.657Z,10.27
2024-04-30T13:58:47.458Z,10.18
2024-04-30T13:59:49.781Z,8.00
2024-04-30T14:00:51.955Z,24.13
2024-04-30T14:01:55.761Z,19.42
2024-04-30T14:02:59.584Z,15.77
2024-04-30T14:04:02.643Z,13.45
2024-04-30T14:05:06.769Z,7.93
2024-04-30T14:06:11.478Z,9.80
2024-04-30T14:07:13.708Z,10.90
2024-04-30T14:08:19.567Z,13.70
2024-04-30T14:09:24.570Z,14.05
2024-04-30T14:10:35.714Z,9.35
2024-04-30T14:11:42.272Z,9.73